Time;durP1;ratioP1;P1;durP2;ratioP2;P2;SDS_P1;SDS_P2;PMS_P1;PMS_P2;Temp;Humidity;BMP_temperature;BMP_pressure;BME280_temperature;BME280_humidity;BME280_pressure;Samples;Min_cycle;Max_cycle;Signal;HPM_P1;HPM_P2
2022/02/13 00:02:15;;;;;;;769.50;283.80;;;;;;;;;;4944858;28;20308;-81
2022/02/13 00:04:41;;;;;;;771.40;288.00;;;;;;;;;;4981925;28;20032;-80
2022/02/13 00:07:07;;;;;;;768.63;282.77;;;;;;;;;;4964389;28;20058;-79
2022/02/13 00:09:33;;;;;;;769.67;283.10;;;;;;;;;;4960479;28;20504;-80
2022/02/13 00:12:02;;;;;;;768.42;281.38;;;;;;;;;;4963842;28;20408;-80
2022/02/13 00:14:29;;;;;;;769.40;283.20;;;;;;;;;;4945464;28;20035;-79
2022/02/13 00:16:56;;;;;;;768.22;280.50;;;;;;;;;;4961843;28;20478;-85
2022/02/13 00:19:21;;;;;;;768.03;278.20;;;;;;;;;;4984730;28;20023;-79
2022/02/13 00:21:48;;;;;;;768.40;280.90;;;;;;;;;;4961211;28;20486;-80
2022/02/13 00:24:13;;;;;;;769.17;281.20;;;;;;;;;;4978349;28;20226;-81
2022/02/13 00:26:40;;;;;;;767.85;284.13;;;;;;;;;;4951387;28;20035;-79
2022/02/13 00:29:07;;;;;;;767.60;279.00;;;;;;;;;;4962671;28;20031;-81
2022/02/13 00:31:33;;;;;;;769.92;283.45;;;;;;;;;;4973693;28;20039;-82
2022/02/13 00:33:59;;;;;;;768.30;279.85;;;;;;;;;;4968951;28;20023;-81
2022/02/13 00:36:25;;;;;;;770.45;284.73;;;;;;;;;;4984943;28;20031;-83
2022/02/13 00:38:51;;;;;;;765.95;279.52;;;;;;;;;;4961565;28;20052;-79
2022/02/13 00:41:17;;;;;;;767.00;282.27;;;;;;;;;;4958076;28;20023;-82
2022/02/13 00:43:43;;;;;;;765.63;275.73;;;;;;;;;;4961312;28;20553;-80
2022/02/13 00:46:09;;;;;;;764.80;273.17;;;;;;;;;;4959566;28;20062;-79
2022/02/13 00:48:35;;;;;;;764.97;275.15;;;;;;;;;;4957208;28;20477;-80
2022/02/13 00:51:01;;;;;;;768.83;283.75;;;;;;;;;;4957382;28;20231;-81
2022/02/13 00:53:27;;;;;;;766.42;273.63;;;;;;;;;;4997061;28;20112;-80
2022/02/13 00:55:53;;;;;;;764.72;272.38;;;;;;;;;;4958996;28;21241;-81
2022/02/13 00:58:19;;;;;;;762.78;269.58;;;;;;;;;;4990185;28;20039;-79
2022/02/13 01:00:45;;;;;;;771.13;276.35;;;;;;;;;;4954186;28;20562;-80
2022/02/13 01:03:11;;;;;;;763.17;272.05;;;;;;;;;;4974155;28;20031;-81
2022/02/13 01:05:37;;;;;;;764.60;270.58;;;;;;;;;;4947441;28;20050;-80
2022/02/13 01:08:04;;;;;;;763.15;274.65;;;;;;;;;;4988755;28;20039;-81
2022/02/13 01:10:31;;;;;;;763.78;271.13;;;;;;;;;;4966215;28;20119;-82
2022/02/13 01:12:58;;;;;;;764.42;277.35;;;;;;;;;;4953138;28;20033;-82
2022/02/13 01:15:25;;;;;;;764.50;271.45;;;;;;;;;;4974404;28;20055;-82
2022/02/13 01:17:50;;;;;;;765.65;275.92;;;;;;;;;;4949034;28;20533;-80
2022/02/13 01:20:17;;;;;;;762.90;268.70;;;;;;;;;;4969508;28;20035;-83
2022/02/13 01:22:45;;;;;;;765.28;272.38;;;;;;;;;;5006968;28;20104;-80
2022/02/13 01:25:11;;;;;;;761.13;267.80;;;;;;;;;;4967953;28;20576;-82
2022/02/13 01:27:37;;;;;;;761.67;263.85;;;;;;;;;;4962674;28;20039;-84
2022/02/13 01:30:04;;;;;;;763.60;267.30;;;;;;;;;;4959385;28;20535;-78
2022/02/13 01:32:31;;;;;;;763.22;267.05;;;;;;;;;;4968448;28;20019;-80
2022/02/13 01:34:57;;;;;;;762.80;269.17;;;;;;;;;;4957965;28;20048;-81
2022/02/13 01:37:23;;;;;;;759.97;264.60;;;;;;;;;;4955823;28;20103;-83
2022/02/13 01:39:49;;;;;;;762.08;265.05;;;;;;;;;;4976309;28;20036;-80
2022/02/13 01:42:15;;;;;;;764.22;270.65;;;;;;;;;;4968076;28;20442;-80
2022/02/13 01:44:42;;;;;;;764.67;269.73;;;;;;;;;;4972729;28;20039;-83
2022/02/13 01:47:08;;;;;;;763.47;269.15;;;;;;;;;;4963781;28;20031;-80
2022/02/13 01:49:34;;;;;;;761.10;265.85;;;;;;;;;;4977553;28;20078;-79
2022/02/13 01:52:01;;;;;;;760.72;263.88;;;;;;;;;;4948195;28;20027;-82
2022/02/13 01:54:28;;;;;;;760.55;264.73;;;;;;;;;;4951747;28;20032;-80
2022/02/13 01:56:54;;;;;;;759.53;262.42;;;;;;;;;;4965339;28;20031;-82
2022/02/13 01:59:20;;;;;;;760.20;264.98;;;;;;;;;;4945434;28;20027;-81
2022/02/13 02:01:46;;;;;;;761.50;268.73;;;;;;;;;;4976873;28;20399;-82
2022/02/13 02:04:12;;;;;;;762.47;268.77;;;;;;;;;;4956534;28;20058;-81
2022/02/13 02:06:38;;;;;;;757.78;257.88;;;;;;;;;;4979576;28;20523;-79
2022/02/13 02:09:05;;;;;;;760.35;265.10;;;;;;;;;;4987729;28;20035;-78
2022/02/13 02:11:32;;;;;;;761.55;267.08;;;;;;;;;;4974718;28;20127;-81
2022/02/13 02:13:58;;;;;;;760.50;265.77;;;;;;;;;;4969837;28;20510;-83
2022/02/13 02:16:24;;;;;;;762.15;265.98;;;;;;;;;;4956062;28;20032;-80
2022/02/13 02:18:50;;;;;;;763.00;264.25;;;;;;;;;;4962518;28;20038;-82
2022/02/13 02:21:16;;;;;;;762.22;267.10;;;;;;;;;;4982544;28;20219;-80
2022/02/13 02:23:42;;;;;;;762.65;265.90;;;;;;;;;;4983740;28;20092;-81
2022/02/13 02:26:10;;;;;;;759.65;265.15;;;;;;;;;;4953834;28;20039;-81
2022/02/13 02:28:36;;;;;;;759.10;266.52;;;;;;;;;;4977715;28;20135;-80
2022/02/13 02:31:02;;;;;;;763.58;271.02;;;;;;;;;;4965915;28;20032;-83
2022/02/13 02:33:28;;;;;;;761.38;264.90;;;;;;;;;;4959076;28;20114;-80
2022/02/13 02:35:55;;;;;;;760.90;264.35;;;;;;;;;;4981303;28;20106;-83
2022/02/13 02:38:21;;;;;;;763.70;272.02;;;;;;;;;;4977920;28;20029;-81
2022/02/13 02:40:47;;;;;;;763.67;270.23;;;;;;;;;;4973214;28;20432;-81
2022/02/13 02:43:13;;;;;;;762.70;270.80;;;;;;;;;;4959486;28;20035;-78
2022/02/13 02:45:39;;;;;;;761.38;267.45;;;;;;;;;;4984188;28;20073;-81
2022/02/13 02:48:05;;;;;;;763.83;268.80;;;;;;;;;;4959436;28;20028;-83
2022/02/13 02:50:31;;;;;;;763.67;271.65;;;;;;;;;;4950532;28;20169;-81
2022/02/13 02:52:57;;;;;;;763.33;268.40;;;;;;;;;;4985672;28;20114;-79
2022/02/13 02:55:23;;;;;;;766.97;276.77;;;;;;;;;;4988399;28;20029;-80
2022/02/13 02:57:49;;;;;;;761.63;267.40;;;;;;;;;;4964780;28;20039;-81
2022/02/13 03:00:15;;;;;;;761.40;265.25;;;;;;;;;;4979482;28;20035;-83
2022/02/13 03:02:41;;;;;;;762.28;265.13;;;;;;;;;;4980439;28;20035;-81
2022/02/13 03:05:07;;;;;;;762.85;264.80;;;;;;;;;;4969942;28;20064;-81
2022/02/13 03:07:33;;;;;;;759.75;262.25;;;;;;;;;;4951930;28;20086;-81
2022/02/13 03:09:58;;;;;;;760.97;262.65;;;;;;;;;;4988492;28;20462;-81
2022/02/13 03:12:24;;;;;;;760.03;267.10;;;;;;;;;;4963537;28;20025;-80
2022/02/13 03:14:50;;;;;;;758.65;260.77;;;;;;;;;;4956748;28;20081;-80
2022/02/13 03:17:16;;;;;;;758.80;263.02;;;;;;;;;;4960555;28;20085;-80
2022/02/13 03:19:42;;;;;;;759.80;261.85;;;;;;;;;;4985744;28;20027;-82
2022/02/13 03:22:08;;;;;;;777.97;269.55;;;;;;;;;;4962743;28;20373;-82
2022/02/13 03:24:34;;;;;;;759.25;258.48;;;;;;;;;;4971296;28;20029;-79
2022/02/13 03:27:00;;;;;;;762.03;262.08;;;;;;;;;;4980558;28;20101;-80
2022/02/13 03:29:26;;;;;;;761.67;263.30;;;;;;;;;;4954565;28;20429;-81
2022/02/13 03:31:54;;;;;;;760.60;261.08;;;;;;;;;;4959143;28;20023;-81
2022/02/13 03:34:20;;;;;;;760.75;259.08;;;;;;;;;;4962599;28;20096;-79
2022/02/13 03:36:48;;;;;;;760.08;260.73;;;;;;;;;;4986801;28;20035;-81
2022/02/13 03:39:14;;;;;;;763.72;267.75;;;;;;;;;;4949439;28;20070;-79
2022/02/13 03:41:40;;;;;;;766.30;265.00;;;;;;;;;;4946240;28;20485;-81
2022/02/13 03:44:08;;;;;;;760.03;259.80;;;;;;;;;;4942140;28;20032;-80
2022/02/13 03:46:34;;;;;;;758.17;258.15;;;;;;;;;;4979147;28;20054;-80
2022/02/13 03:49:00;;;;;;;758.22;260.15;;;;;;;;;;4978838;28;20035;-80
2022/02/13 03:51:26;;;;;;;761.92;261.65;;;;;;;;;;4945118;28;20085;-80
2022/02/13 03:53:52;;;;;;;760.05;258.02;;;;;;;;;;4966614;28;20490;-79
2022/02/13 03:56:18;;;;;;;758.15;257.08;;;;;;;;;;4972729;28;20283;-78
2022/02/13 03:58:44;;;;;;;756.92;256.27;;;;;;;;;;4970530;28;20039;-78
2022/02/13 04:01:10;;;;;;;762.92;260.95;;;;;;;;;;4963423;28;20377;-80
2022/02/13 04:03:36;;;;;;;757.83;259.08;;;;;;;;;;4954296;28;20126;-80
2022/02/13 04:06:03;;;;;;;759.10;260.50;;;;;;;;;;4980789;28;20042;-78
2022/02/13 04:08:29;;;;;;;759.88;265.70;;;;;;;;;;4954875;28;20514;-82
2022/02/13 04:10:56;;;;;;;760.22;265.02;;;;;;;;;;4968658;28;20035;-79
2022/02/13 04:13:22;;;;;;;761.72;269.35;;;;;;;;;;4954118;28;20081;-81
2022/02/13 04:15:48;;;;;;;760.58;266.65;;;;;;;;;;4946245;28;20031;-81
2022/02/13 04:18:14;;;;;;;761.30;261.70;;;;;;;;;;4976442;28;20023;-79
2022/02/13 04:20:41;;;;;;;762.63;270.92;;;;;;;;;;4976270;28;20043;-80
2022/02/13 04:23:07;;;;;;;762.13;263.45;;;;;;;;;;4971769;28;20031;-79
2022/02/13 04:25:34;;;;;;;762.38;265.77;;;;;;;;;;4961758;28;20682;-80
2022/02/13 04:28:00;;;;;;;759.90;262.08;;;;;;;;;;4935249;28;20031;-80
2022/02/13 04:30:26;;;;;;;761.80;266.02;;;;;;;;;;4967905;28;20039;-79
2022/02/13 04:32:53;;;;;;;758.08;264.02;;;;;;;;;;4982906;28;20039;-79
2022/02/13 04:35:19;;;;;;;764.38;270.60;;;;;;;;;;4967946;28;20069;-79
2022/02/13 04:37:49;;;;;;;763.17;268.63;;;;;;;;;;4953484;28;20434;-79
2022/02/13 04:40:15;;;;;;;766.42;278.17;;;;;;;;;;4952696;28;20052;-79
2022/02/13 04:42:41;;;;;;;764.25;272.38;;;;;;;;;;4961257;28;20032;-80
2022/02/13 04:45:07;;;;;;;767.10;275.05;;;;;;;;;;4943733;28;21200;-79
2022/02/13 04:47:33;;;;;;;763.00;267.83;;;;;;;;;;4966111;28;20636;-79
2022/02/13 04:49:59;;;;;;;760.10;267.90;;;;;;;;;;4945367;28;20031;-80
2022/02/13 04:52:25;;;;;;;760.13;261.40;;;;;;;;;;4953925;28;20052;-81
2022/02/13 04:54:51;;;;;;;762.08;262.75;;;;;;;;;;4956129;28;20034;-80
2022/02/13 04:57:17;;;;;;;758.47;263.23;;;;;;;;;;4958107;28;20110;-80
2022/02/13 04:59:43;;;;;;;762.70;263.67;;;;;;;;;;4955829;28;20043;-80
2022/02/13 05:02:09;;;;;;;760.58;266.27;;;;;;;;;;4962359;28;20050;-79
2022/02/13 05:04:35;;;;;;;760.03;263.25;;;;;;;;;;4962455;28;20403;-79
2022/02/13 05:07:01;;;;;;;760.50;261.52;;;;;;;;;;4978129;28;20059;-79
2022/02/13 05:09:27;;;;;;;757.72;260.48;;;;;;;;;;4971108;28;20085;-81
2022/02/13 05:11:55;;;;;;;761.35;262.15;;;;;;;;;;4971807;28;20035;-79
2022/02/13 05:14:21;;;;;;;758.40;263.08;;;;;;;;;;4960723;28;20472;-79
2022/02/13 05:16:47;;;;;;;757.97;259.90;;;;;;;;;;4964610;28;20034;-80
2022/02/13 05:19:13;;;;;;;756.85;260.88;;;;;;;;;;4965884;28;20580;-84
2022/02/13 05:21:40;;;;;;;758.30;263.08;;;;;;;;;;4977626;28;20074;-81
2022/02/13 05:24:06;;;;;;;759.67;260.55;;;;;;;;;;4966905;28;20298;-80
2022/02/13 05:26:32;;;;;;;758.90;262.27;;;;;;;;;;4968809;28;20392;-81
2022/02/13 05:28:58;;;;;;;761.55;267.73;;;;;;;;;;4961324;28;20039;-78
2022/02/13 05:31:29;;;;;;;762.47;267.55;;;;;;;;;;4992000;28;20027;-80
2022/02/13 05:33:55;;;;;;;761.20;262.80;;;;;;;;;;4986479;28;20035;-79
2022/02/13 05:36:21;;;;;;;761.42;266.30;;;;;;;;;;4977129;28;20028;-79
2022/02/13 05:38:47;;;;;;;760.83;266.90;;;;;;;;;;4958935;28;20054;-81
2022/02/13 05:41:13;;;;;;;762.42;266.13;;;;;;;;;;4964173;28;20047;-79
2022/02/13 05:43:39;;;;;;;759.60;264.77;;;;;;;;;;4986364;28;20149;-80
2022/02/13 05:46:05;;;;;;;762.83;268.42;;;;;;;;;;4980265;28;20372;-80
2022/02/13 05:48:32;;;;;;;760.47;265.60;;;;;;;;;;4953298;28;20024;-79
2022/02/13 05:50:59;;;;;;;763.63;272.23;;;;;;;;;;4963348;28;20053;-79
2022/02/13 05:53:25;;;;;;;761.38;266.33;;;;;;;;;;4962714;28;20019;-82
2022/02/13 05:55:51;;;;;;;760.53;265.70;;;;;;;;;;4985760;28;20036;-81
2022/02/13 05:58:17;;;;;;;761.20;267.88;;;;;;;;;;4972950;28;20041;-79
2022/02/13 06:00:43;;;;;;;759.55;262.45;;;;;;;;;;4972487;28;20111;-80
2022/02/13 06:03:09;;;;;;;761.25;264.60;;;;;;;;;;4952633;28;20149;-80
2022/02/13 06:05:36;;;;;;;761.38;266.45;;;;;;;;;;4956961;28;20085;-79
2022/02/13 06:08:02;;;;;;;761.38;264.73;;;;;;;;;;4978877;28;20055;-83
2022/02/13 06:10:28;;;;;;;759.63;265.83;;;;;;;;;;4970975;28;20124;-82
2022/02/13 06:12:54;;;;;;;763.70;269.55;;;;;;;;;;4972156;28;20029;-78
2022/02/13 06:15:20;;;;;;;762.63;269.20;;;;;;;;;;4959440;28;20376;-79
2022/02/13 06:17:46;;;;;;;760.83;262.73;;;;;;;;;;4977923;28;20096;-79
2022/02/13 06:20:12;;;;;;;759.58;262.25;;;;;;;;;;4987990;28;20031;-81
2022/02/13 06:22:39;;;;;;;762.50;267.85;;;;;;;;;;4983922;28;20039;-80
2022/02/13 06:25:05;;;;;;;762.20;264.75;;;;;;;;;;4954072;28;20117;-83
2022/02/13 06:27:31;;;;;;;759.90;260.73;;;;;;;;;;4957265;28;20059;-83
2022/02/13 06:29:57;;;;;;;758.95;261.55;;;;;;;;;;4953546;28;20318;-81
2022/02/13 06:32:23;;;;;;;762.38;265.45;;;;;;;;;;4987149;28;20036;-80
2022/02/13 06:34:49;;;;;;;762.72;264.55;;;;;;;;;;4982281;28;20027;-81
2022/02/13 06:37:15;;;;;;;762.22;264.50;;;;;;;;;;4974904;28;20526;-81
2022/02/13 06:39:41;;;;;;;761.47;265.60;;;;;;;;;;4952634;28;20027;-82
2022/02/13 06:42:07;;;;;;;758.95;263.40;;;;;;;;;;4966166;28;20040;-78
2022/02/13 06:44:33;;;;;;;763.17;264.88;;;;;;;;;;4983139;28;20130;-79
2022/02/13 06:46:59;;;;;;;757.83;263.48;;;;;;;;;;4986069;28;20035;-79
2022/02/13 06:49:25;;;;;;;761.00;265.17;;;;;;;;;;4979070;28;20435;-80
2022/02/13 06:51:51;;;;;;;761.97;266.95;;;;;;;;;;4966267;28;20033;-78
2022/02/13 06:54:17;;;;;;;762.22;265.75;;;;;;;;;;4959821;28;20028;-79
2022/02/13 06:56:43;;;;;;;762.20;268.05;;;;;;;;;;5030397;28;20152;-79
2022/02/13 06:59:09;;;;;;;761.30;265.63;;;;;;;;;;4978745;28;20038;-80
2022/02/13 07:01:35;;;;;;;759.58;268.45;;;;;;;;;;4948022;28;20103;-80
2022/02/13 07:04:01;;;;;;;762.83;269.77;;;;;;;;;;4966362;28;20064;-82
2022/02/13 07:06:27;;;;;;;763.58;269.42;;;;;;;;;;4955186;28;20075;-80
2022/02/13 07:08:53;;;;;;;763.15;271.90;;;;;;;;;;4979001;28;20115;-79
2022/02/13 07:11:19;;;;;;;762.08;268.98;;;;;;;;;;4976358;28;20463;-81
2022/02/13 07:13:45;;;;;;;763.75;270.20;;;;;;;;;;4982676;28;20041;-79
2022/02/13 07:16:11;;;;;;;761.58;271.00;;;;;;;;;;4954009;28;20566;-79
2022/02/13 07:18:37;;;;;;;763.10;271.13;;;;;;;;;;4960417;28;20166;-79
2022/02/13 07:21:03;;;;;;;764.47;274.13;;;;;;;;;;4961891;28;20042;-79
2022/02/13 07:23:29;;;;;;;764.97;276.05;;;;;;;;;;4944412;28;20475;-79
2022/02/13 07:25:55;;;;;;;766.13;274.27;;;;;;;;;;5006318;28;20038;-81
2022/02/13 07:31:07;;;;;;;764.53;275.75;;;;;;;;;;4969599;28;20087;-80
2022/02/13 07:33:34;;;;;;;765.65;275.77;;;;;;;;;;4957654;28;20023;-78
2022/02/13 07:36:00;;;;;;;765.97;274.92;;;;;;;;;;4976981;28;20243;-80
2022/02/13 07:38:26;;;;;;;763.50;276.10;;;;;;;;;;4986401;28;20033;-82
2022/02/13 07:40:52;;;;;;;764.83;276.25;;;;;;;;;;4979297;28;20200;-79
2022/02/13 07:43:18;;;;;;;766.88;278.75;;;;;;;;;;4944851;28;20063;-82
2022/02/13 07:45:44;;;;;;;767.72;281.48;;;;;;;;;;4948222;28;20031;-83
2022/02/13 07:48:11;;;;;;;763.88;273.52;;;;;;;;;;4960101;28;20035;-82
2022/02/13 07:50:37;;;;;;;765.50;277.20;;;;;;;;;;4961432;28;20116;-81
2022/02/13 07:53:03;;;;;;;766.10;277.83;;;;;;;;;;4941249;28;20041;-80
2022/02/13 07:55:31;;;;;;;767.05;278.17;;;;;;;;;;4981269;28;20025;-78
2022/02/13 07:57:57;;;;;;;769.63;278.80;;;;;;;;;;4974711;28;20024;-81
2022/02/13 08:00:23;;;;;;;767.28;280.65;;;;;;;;;;4974170;28;20039;-82
2022/02/13 08:02:49;;;;;;;769.78;287.20;;;;;;;;;;4978191;28;20500;-80
2022/02/13 08:05:15;;;;;;;767.95;284.73;;;;;;;;;;4981935;28;20488;-79
2022/02/13 08:07:48;;;;;;;770.08;286.38;;;;;;;;;;4946090;28;20130;-78
2022/02/13 08:10:17;;;;;;;768.63;284.17;;;;;;;;;;4957925;28;20016;-80
2022/02/13 08:12:44;;;;;;;771.95;291.77;;;;;;;;;;4961288;28;20027;-79
2022/02/13 08:15:10;;;;;;;771.67;289.17;;;;;;;;;;4975310;28;20065;-82
2022/02/13 08:17:36;;;;;;;769.85;286.20;;;;;;;;;;4988926;28;20039;-83
2022/02/13 08:20:05;;;;;;;770.78;288.00;;;;;;;;;;4969276;28;20340;-79
2022/02/13 08:22:32;;;;;;;771.93;291.33;;;;;;;;;;4970084;28;20037;-81
2022/02/13 08:24:58;;;;;;;773.55;294.67;;;;;;;;;;4954381;28;20062;-79
2022/02/13 08:27:23;;;;;;;773.35;292.50;;;;;;;;;;4948095;28;20031;-79
2022/02/13 08:29:51;;;;;;;773.63;293.60;;;;;;;;;;4977219;28;20440;-82
2022/02/13 08:32:17;;;;;;;773.10;294.25;;;;;;;;;;4956714;28;20422;-80
2022/02/13 08:34:43;;;;;;;771.20;289.17;;;;;;;;;;4952411;28;20823;-80
2022/02/13 08:37:09;;;;;;;775.35;298.00;;;;;;;;;;4956277;28;20386;-80
2022/02/13 08:39:35;;;;;;;772.10;293.90;;;;;;;;;;4970406;28;20027;-79
2022/02/13 08:42:01;;;;;;;773.25;297.65;;;;;;;;;;4957659;28;20522;-80
2022/02/13 08:44:27;;;;;;;774.80;298.38;;;;;;;;;;4976123;28;20433;-80
2022/02/13 08:46:53;;;;;;;773.95;297.30;;;;;;;;;;4992852;28;20080;-79
2022/02/13 08:49:19;;;;;;;774.95;299.00;;;;;;;;;;4961175;28;20085;-80
2022/02/13 08:51:45;;;;;;;772.65;300.50;;;;;;;;;;4964572;28;20031;-81
2022/02/13 08:54:11;;;;;;;776.45;304.60;;;;;;;;;;4946346;28;20122;-81
2022/02/13 08:56:37;;;;;;;776.25;303.90;;;;;;;;;;4961558;28;20032;-79
2022/02/13 08:59:03;;;;;;;774.67;303.60;;;;;;;;;;4961818;28;20569;-78
2022/02/13 09:01:29;;;;;;;773.72;303.77;;;;;;;;;;4968608;28;20063;-84
2022/02/13 09:03:55;;;;;;;775.75;305.13;;;;;;;;;;4957876;28;20094;-81
2022/02/13 09:06:21;;;;;;;774.67;301.00;;;;;;;;;;4957362;28;20051;-80
2022/02/13 09:08:47;;;;;;;779.03;307.73;;;;;;;;;;4970907;28;20032;-78
2022/02/13 09:11:13;;;;;;;777.95;309.45;;;;;;;;;;4995585;28;20448;-80
2022/02/13 09:13:39;;;;;;;777.47;307.80;;;;;;;;;;4962864;28;20037;-79
2022/02/13 09:16:06;;;;;;;777.22;310.70;;;;;;;;;;4956808;28;20031;-79
2022/02/13 09:18:32;;;;;;;777.03;305.42;;;;;;;;;;4986264;28;20533;-79
2022/02/13 09:20:57;;;;;;;778.65;314.10;;;;;;;;;;4944028;28;20063;-79
2022/02/13 09:23:23;;;;;;;777.58;311.88;;;;;;;;;;4962636;28;20158;-80
2022/02/13 09:25:50;;;;;;;778.15;308.27;;;;;;;;;;4961378;28;20214;-80
2022/02/13 09:28:17;;;;;;;781.60;319.23;;;;;;;;;;4959839;28;20038;-82
2022/02/13 09:30:46;;;;;;;780.85;317.40;;;;;;;;;;4974333;28;20364;-82
2022/02/13 09:33:12;;;;;;;585.28;242.93;;;;;;;;;;4959930;28;20032;-79
2022/02/13 09:35:39;;;;;;;780.42;316.80;;;;;;;;;;4980337;28;20037;-80
2022/02/13 09:38:05;;;;;;;781.03;318.85;;;;;;;;;;4951072;28;20110;-82
2022/02/13 09:40:33;;;;;;;781.03;320.52;;;;;;;;;;4980523;28;20038;-79
2022/02/13 09:43:00;;;;;;;784.25;324.60;;;;;;;;;;4987429;28;20031;-80
2022/02/13 09:45:27;;;;;;;782.08;325.83;;;;;;;;;;4948532;28;20097;-81
2022/02/13 09:47:54;;;;;;;782.58;323.33;;;;;;;;;;4952273;28;20038;-80
2022/02/13 09:50:20;;;;;;;785.75;330.10;;;;;;;;;;4956538;28;20035;-79
2022/02/13 09:52:54;;;;;;;784.90;330.73;;;;;;;;;;4956489;28;20028;-79
2022/02/13 09:55:20;;;;;;;786.88;329.77;;;;;;;;;;4968947;28;20017;-82
2022/02/13 09:58:03;;;;;;;782.83;331.13;;;;;;;;;;4945999;28;20127;-79
2022/02/13 10:00:47;;;;;;;781.78;329.50;;;;;;;;;;4955241;28;20029;-80
2022/02/13 10:03:17;;;;;;;780.70;326.20;;;;;;;;;;4951452;28;20060;-82
2022/02/13 10:05:43;;;;;;;789.55;338.05;;;;;;;;;;4953841;28;20043;-82
2022/02/13 10:08:09;;;;;;;789.40;342.05;;;;;;;;;;4965941;28;20294;-83
2022/02/13 10:10:35;;;;;;;789.58;345.05;;;;;;;;;;4964236;28;20051;-79
2022/02/13 10:13:01;;;;;;;790.65;347.33;;;;;;;;;;4969626;28;20035;-81
2022/02/13 10:15:30;;;;;;;793.33;353.98;;;;;;;;;;4961506;28;20439;-79
2022/02/13 10:18:06;;;;;;;797.17;361.73;;;;;;;;;;4972486;28;20025;-82
2022/02/13 10:20:32;;;;;;;803.08;375.45;;;;;;;;;;4951816;28;20035;-79
2022/02/13 10:23:05;;;;;;;803.92;383.15;;;;;;;;;;4970465;28;20097;-81
2022/02/13 10:25:31;;;;;;;804.22;388.05;;;;;;;;;;4987777;28;20035;-78
2022/02/13 10:27:57;;;;;;;805.97;390.15;;;;;;;;;;4963456;28;20035;-78
2022/02/13 10:30:36;;;;;;;804.78;390.48;;;;;;;;;;4986548;28;20036;-80
2022/02/13 10:33:21;;;;;;;801.90;380.42;;;;;;;;;;4966627;28;20104;-79
2022/02/13 10:36:05;;;;;;;802.58;382.23;;;;;;;;;;4955718;28;20037;-80
2022/02/13 10:38:32;;;;;;;806.65;390.38;;;;;;;;;;4959177;28;20077;-78
2022/02/13 10:41:11;;;;;;;808.15;401.60;;;;;;;;;;4976698;28;20023;-80
2022/02/13 10:43:57;;;;;;;805.42;395.08;;;;;;;;;;4974623;28;20343;-79
2022/02/13 10:46:31;;;;;;;802.53;391.83;;;;;;;;;;4983166;28;20157;-80
2022/02/13 10:48:58;;;;;;;809.97;402.58;;;;;;;;;;4979917;28;20027;-82
2022/02/13 10:51:24;;;;;;;809.75;406.23;;;;;;;;;;4958166;28;20459;-81
2022/02/13 10:53:51;;;;;;;812.55;419.88;;;;;;;;;;4947334;28;20038;-82
2022/02/13 10:56:18;;;;;;;815.25;418.95;;;;;;;;;;4959625;28;20110;-79
2022/02/13 10:58:44;;;;;;;825.40;431.80;;;;;;;;;;4963545;28;20399;-79
2022/02/13 11:01:10;;;;;;;815.88;428.42;;;;;;;;;;4997668;28;20034;-83
2022/02/13 11:03:37;;;;;;;812.88;425.65;;;;;;;;;;4957709;28;20043;-83
2022/02/13 11:06:06;;;;;;;818.60;431.60;;;;;;;;;;4943035;28;20236;-80
2022/02/13 11:08:35;;;;;;;603.03;315.67;;;;;;;;;;4969088;28;20028;-79
2022/02/13 11:11:01;;;;;;;815.78;429.73;;;;;;;;;;4964144;28;20551;-85
2022/02/13 11:13:30;;;;;;;816.22;432.67;;;;;;;;;;4964321;28;20027;-79
2022/02/13 11:15:56;;;;;;;815.35;432.13;;;;;;;;;;4967929;28;20295;-79
2022/02/13 11:18:33;;;;;;;818.15;436.15;;;;;;;;;;4962293;28;20118;-81
2022/02/13 11:20:59;;;;;;;814.30;431.98;;;;;;;;;;4950488;28;20498;-80
2022/02/13 11:23:25;;;;;;;811.60;420.02;;;;;;;;;;4959889;28;20027;-83
2022/02/13 11:25:51;;;;;;;812.83;425.25;;;;;;;;;;4980410;28;20032;-80
2022/02/13 11:28:19;;;;;;;813.83;422.25;;;;;;;;;;4955344;28;20153;-81
2022/02/13 11:30:51;;;;;;;813.72;425.92;;;;;;;;;;4950923;28;20042;-81
2022/02/13 11:33:23;;;;;;;819.83;442.55;;;;;;;;;;4963318;28;20120;-79
2022/02/13 11:36:03;;;;;;;816.30;437.85;;;;;;;;;;4977084;28;20031;-80
2022/02/13 11:38:47;;;;;;;815.60;429.90;;;;;;;;;;4949509;28;20126;-80
2022/02/13 11:41:14;;;;;;;811.50;417.23;;;;;;;;;;4975411;28;20039;-82
2022/02/13 11:43:46;;;;;;;816.80;436.33;;;;;;;;;;4966735;28;20090;-79
2022/02/13 11:46:12;;;;;;;816.05;434.67;;;;;;;;;;4953774;28;20036;-82
2022/02/13 11:48:40;;;;;;;817.00;438.25;;;;;;;;;;4967889;28;20317;-80
2022/02/13 11:51:07;;;;;;;820.28;446.67;;;;;;;;;;4947412;28;20075;-80
2022/02/13 11:53:35;;;;;;;817.70;438.55;;;;;;;;;;4979629;28;20096;-80
2022/02/13 11:56:30;;;;;;;817.35;433.15;;;;;;;;;;4968252;28;20405;-82
2022/02/13 11:58:57;;;;;;;811.80;422.17;;;;;;;;;;4984847;28;20041;-82
2022/02/13 12:01:44;;;;;;;820.08;441.20;;;;;;;;;;4944327;28;20046;-80
2022/02/13 12:04:10;;;;;;;815.85;431.38;;;;;;;;;;4954006;28;20043;-79
2022/02/13 12:06:37;;;;;;;817.65;435.70;;;;;;;;;;4954020;28;20070;-79
2022/02/13 12:09:07;;;;;;;819.70;443.50;;;;;;;;;;4958742;28;20595;-81
2022/02/13 12:11:43;;;;;;;823.72;451.00;;;;;;;;;;4986948;28;20023;-85
2022/02/13 12:14:17;;;;;;;819.83;444.60;;;;;;;;;;4974001;28;20039;-79
2022/02/13 12:16:54;;;;;;;819.50;448.10;;;;;;;;;;4973044;28;20511;-81
2022/02/13 12:19:30;;;;;;;825.17;459.63;;;;;;;;;;4953711;28;20333;-79
2022/02/13 12:22:10;;;;;;;822.25;450.38;;;;;;;;;;4957617;28;20523;-83
2022/02/13 12:24:37;;;;;;;821.40;454.52;;;;;;;;;;4971202;28;20122;-80
2022/02/13 12:27:03;;;;;;;816.25;436.85;;;;;;;;;;4980313;28;20118;-80
2022/02/13 12:29:31;;;;;;;820.20;451.33;;;;;;;;;;4949765;28;20307;-82
2022/02/13 12:32:10;;;;;;;821.17;450.02;;;;;;;;;;4976446;28;20029;-78
2022/02/13 12:34:56;;;;;;;822.22;451.73;;;;;;;;;;4957609;28;20027;-80
2022/02/13 12:37:43;;;;;;;820.90;447.25;;;;;;;;;;4963441;28;20015;-80
2022/02/13 12:40:13;;;;;;;819.35;440.92;;;;;;;;;;4974238;28;20243;-79
2022/02/13 12:42:39;;;;;;;;;;;;;;;;;;4960442;28;20027;-79
2022/02/13 12:45:08;;;;;;;816.47;433.15;;;;;;;;;;4970675;28;19913;-78
2022/02/13 12:47:35;;;;;;;822.38;453.15;;;;;;;;;;4964018;28;20116;-80
2022/02/13 12:50:06;;;;;;;822.85;454.45;;;;;;;;;;4960309;28;20031;-83
2022/02/13 12:52:32;;;;;;;824.78;458.85;;;;;;;;;;4976402;28;20033;-81
2022/02/13 12:55:00;;;;;;;819.97;454.08;;;;;;;;;;4977139;28;20035;-85
2022/02/13 12:57:26;;;;;;;820.92;459.83;;;;;;;;;;4963900;28;20107;-83
2022/02/13 12:59:53;;;;;;;821.10;452.90;;;;;;;;;;4971762;28;20025;-82
2022/02/13 13:02:20;;;;;;;826.95;468.77;;;;;;;;;;4947980;28;20126;-79
2022/02/13 13:04:46;;;;;;;825.85;462.27;;;;;;;;;;4974448;28;20039;-81
2022/02/13 13:07:18;;;;;;;825.45;467.95;;;;;;;;;;4978874;28;20332;-80
2022/02/13 13:09:45;;;;;;;825.15;464.60;;;;;;;;;;4978587;28;20039;-83
2022/02/13 13:12:18;;;;;;;820.13;457.85;;;;;;;;;;4957000;28;20111;-78
2022/02/13 13:14:55;;;;;;;816.63;452.48;;;;;;;;;;4958346;28;20028;-81
2022/02/13 13:17:21;;;;;;;821.95;459.48;;;;;;;;;;4952360;28;20042;-81
2022/02/13 13:19:47;;;;;;;821.65;458.83;;;;;;;;;;4972781;28;20305;-82
2022/02/13 13:22:17;;;;;;;821.88;464.40;;;;;;;;;;4992513;28;20031;-79
2022/02/13 13:24:47;;;;;;;823.90;463.58;;;;;;;;;;4984990;28;20063;-77
2022/02/13 13:27:26;;;;;;;825.78;456.58;;;;;;;;;;4949976;28;20023;-82
2022/02/13 13:29:52;;;;;;;825.78;466.15;;;;;;;;;;4966172;28;20038;-80
2022/02/13 13:32:19;;;;;;;823.83;461.50;;;;;;;;;;4944172;28;20035;-83
2022/02/13 13:34:45;;;;;;;820.38;453.60;;;;;;;;;;4976985;28;20440;-84
2022/02/13 13:37:35;;;;;;;825.03;464.05;;;;;;;;;;4989536;28;20302;-81
2022/02/13 13:40:11;;;;;;;823.25;456.48;;;;;;;;;;4955086;28;20043;-80
2022/02/13 13:42:48;;;;;;;826.42;467.80;;;;;;;;;;4959385;28;20499;-78
2022/02/13 13:45:18;;;;;;;825.72;464.25;;;;;;;;;;4975197;28;20542;-81
2022/02/13 13:47:46;;;;;;;828.45;469.48;;;;;;;;;;4970837;28;20078;-79
2022/02/13 13:50:13;;;;;;;826.10;469.83;;;;;;;;;;4962819;28;20224;-80
2022/02/13 13:52:39;;;;;;;826.35;469.60;;;;;;;;;;4946775;28;20031;-80
2022/02/13 13:55:05;;;;;;;828.30;473.25;;;;;;;;;;4958771;28;20023;-82
2022/02/13 13:57:31;;;;;;;827.88;477.17;;;;;;;;;;4964598;28;20031;-84
2022/02/13 13:59:57;;;;;;;824.70;464.52;;;;;;;;;;4977955;28;20112;-85